Darstellungsparameter: Aktuell verwendete Einstellungen:
Skalierung der Graphiken ... ?
xyx+y,   Skalierungsfaktor:      Skalierung: Modus: x, Faktor: 1
Darstellungszeitraum ... ?
Vom - - bis: - -   Zeitraum: 29.07.2021 - 29.07.2021
Min/Max/Avg-Anzeige ... ?
Zeige MMA aktuell
Zeige MMA Monat
Zeige MMA alles
Zeige --A aktuell
Zeige --A Monat
Zeige --A alles
Keine MMA-Anzeige
MMA:
Average (ber die Originaldaten)
MMA-Basis: 23.02.2003 - 23.04.2020
Quicknavigation für Darstellung... ?
Tage:      1T, 2T, 3T, 5T -1T -2T -3T -5T +1T +2T +3T +5T
Wochen: 1W, 2W, 3W -1W -2W -3W +1W +2W +3W
Monate: 1M, 3M, 6M -1M -3M -6M +1M +3M +6M
Jahre:    1J, 3J, 5J, 10J -1J -3J -5J -10J +1J +3J +5J +10J
Nutze für die Darstellung ... ?
Originaldaten oder Mittelwerte auf ...
Stundenbasis Tagesbasis Wochenbasis
Monatsbasis Jahresbasis      Datenbasis: Original-Daten
Darstellen als:
Statistik (Auto) Statistik J:M      Darstellung:

Der gewünschte Datumsbereich war nicht gültig/verfügbar und wurde korrigiert....
Das angegebene Enddatum (22.06.2026 23:59:59) liegt in der Zukunft.
Das angegebene Startdatum (21.06.2026 00:00:00) liegt in der Zukunft.


Zur Graphik,    zurück zur Übersicht aller Sensoren.
 
Tabellarische Datenbersicht: ?
 
Sensor: Nr:Datum:Temp:Abs-Feuchte:Windchill:Wind:
Aussen-T/F 1 29-07-2021 02:00:00 14.6 C 11.64 g/m*3 14.6 C 0 km/h
2 29-07-2021 02:05:00 14.6 C 11.64 g/m*3 14.6 C 0 km/h
3 29-07-2021 02:10:00 14.6 C 11.64 g/m*3 14.6 C 0 km/h
4 29-07-2021 02:15:00 14.7 C 11.71 g/m*3 14.7 C 1.6 km/h
5 29-07-2021 02:20:00 14.7 C 11.71 g/m*3 14.7 C 0 km/h
6 29-07-2021 02:25:00 14.8 C 11.78 g/m*3 14.8 C 3.2 km/h
7 29-07-2021 02:30:00 14.8 C 11.78 g/m*3 14.8 C 0 km/h
8 29-07-2021 02:35:00 14.8 C 11.78 g/m*3 14.8 C 0 km/h
9 29-07-2021 02:40:00 14.9 C 11.85 g/m*3 14.9 C 0 km/h
10 29-07-2021 02:45:00 14.9 C 11.85 g/m*3 14.9 C 0 km/h
11 29-07-2021 02:50:00 14.9 C 11.85 g/m*3 14.9 C 0 km/h
12 29-07-2021 02:55:00 15 C 11.93 g/m*3 15 C 1.6 km/h
13 29-07-2021 03:00:00 15 C 11.93 g/m*3 15 C 0 km/h
14 29-07-2021 03:05:00 15 C 11.93 g/m*3 15 C 0 km/h
15 29-07-2021 03:10:00 15 C 11.93 g/m*3 15 C 1.6 km/h
16 29-07-2021 03:15:00 15 C 11.8 g/m*3 15 C 0 km/h
17 29-07-2021 03:20:00 15 C 11.93 g/m*3 15 C 1.6 km/h
18 29-07-2021 03:25:00 15 C 11.8 g/m*3 15 C 1.6 km/h
19 29-07-2021 03:30:00 15.1 C 11.87 g/m*3 15.1 C 3.2 km/h
20 29-07-2021 03:35:00 15.1 C 11.87 g/m*3 15.1 C 0 km/h
21 29-07-2021 03:40:00 15.2 C 11.94 g/m*3 15.2 C 1.6 km/h
22 29-07-2021 03:45:00 15.2 C 11.81 g/m*3 15.2 C 1.6 km/h
23 29-07-2021 03:50:00 15.2 C 11.81 g/m*3 15.2 C 1.6 km/h
24 29-07-2021 03:55:00 15.1 C 11.61 g/m*3 15.1 C 0 km/h
25 29-07-2021 04:00:00 15 C 11.54 g/m*3 15 C 1.6 km/h
Sensor: Nr:Datum:Temp:Abs-Feuchte:Windchill:Wind:
Aussen-T/F 26 29-07-2021 04:05:00 15 C 11.67 g/m*3 15 C 0 km/h
27 29-07-2021 04:10:00 14.9 C 11.6 g/m*3 14.9 C 1.6 km/h
28 29-07-2021 04:15:00 14.8 C 11.53 g/m*3 14.8 C 0 km/h
29 29-07-2021 04:20:00 14.8 C 11.53 g/m*3 14.8 C 1.6 km/h
30 29-07-2021 04:25:00 14.7 C 11.46 g/m*3 14.7 C 1.6 km/h
31 29-07-2021 04:30:00 14.7 C 11.46 g/m*3 14.7 C 3.2 km/h
32 29-07-2021 04:35:00 14.6 C 11.39 g/m*3 14.6 C 1.6 km/h
33 29-07-2021 04:40:00 14.6 C 11.51 g/m*3 14.6 C 3.2 km/h
34 29-07-2021 04:45:00 14.6 C 11.51 g/m*3 14.6 C 1.6 km/h
35 29-07-2021 04:50:00 14.6 C 11.51 g/m*3 14.6 C 4.8 km/h
36 29-07-2021 04:55:00 14.7 C 11.58 g/m*3 14.7 C 4.8 km/h
37 29-07-2021 05:00:00 14.8 C 11.65 g/m*3 14.8 C 0 km/h
38 29-07-2021 05:05:00 14.8 C 11.65 g/m*3 14.8 C 4.8 km/h
39 29-07-2021 05:10:00 14.9 C 11.6 g/m*3 14.9 C 8.1 km/h
40 29-07-2021 05:15:00 15 C 11.67 g/m*3 15 C 4.8 km/h
41 29-07-2021 05:20:00 15.1 C 11.61 g/m*3 15.1 C 6.4 km/h
42 29-07-2021 05:25:00 15.2 C 11.68 g/m*3 15.2 C 1.6 km/h
43 29-07-2021 05:30:00 15.3 C 11.75 g/m*3 15.3 C 1.6 km/h
44 29-07-2021 05:35:00 15.3 C 11.75 g/m*3 15.3 C 3.2 km/h
45 29-07-2021 05:40:00 15.3 C 11.75 g/m*3 15.3 C 0 km/h
46 29-07-2021 05:45:00 15.4 C 11.82 g/m*3 15.4 C 0 km/h
47 29-07-2021 05:50:00 15.4 C 11.82 g/m*3 15.4 C 3.2 km/h
48 29-07-2021 05:55:00 15.4 C 11.82 g/m*3 15.4 C 8.1 km/h
49 29-07-2021 06:00:00 15.4 C 11.82 g/m*3 15.4 C 0 km/h
50 29-07-2021 06:05:00 15.4 C 11.82 g/m*3 15.4 C 1.6 km/h
Sensor: Nr:Datum:Temp:Abs-Feuchte:Windchill:Wind:
Aussen-T/F 51 29-07-2021 06:10:00 15.4 C 11.82 g/m*3 15.4 C 0 km/h
52 29-07-2021 06:15:00 15.4 C 11.82 g/m*3 15.4 C 1.6 km/h
53 29-07-2021 06:20:00 15.4 C 11.82 g/m*3 15.4 C 0 km/h
54 29-07-2021 06:25:00 15.3 C 11.75 g/m*3 15.3 C 1.6 km/h
55 29-07-2021 06:30:00 15.3 C 11.88 g/m*3 15.3 C 1.6 km/h
56 29-07-2021 06:35:00 15.3 C 11.88 g/m*3 15.3 C 1.6 km/h
57 29-07-2021 06:40:00 15.2 C 11.81 g/m*3 15.2 C 0 km/h
58 29-07-2021 06:45:00 15.2 C 11.81 g/m*3 15.2 C 0 km/h
59 29-07-2021 06:50:00 15.1 C 11.74 g/m*3 15.1 C 0 km/h
60 29-07-2021 06:55:00 15 C 11.67 g/m*3 15 C 0 km/h
61 29-07-2021 07:00:00 15 C 11.8 g/m*3 15 C 0 km/h
62 29-07-2021 07:05:00 15 C 11.8 g/m*3 15 C 0 km/h
63 29-07-2021 07:10:00 15.1 C 12 g/m*3 15.1 C 1.6 km/h
64 29-07-2021 07:15:00 15.2 C 12.07 g/m*3 15.2 C 0 km/h
65 29-07-2021 07:20:00 15.3 C 12.14 g/m*3 15.3 C 0 km/h
66 29-07-2021 07:25:00 15.4 C 12.22 g/m*3 15.4 C 1.6 km/h
67 29-07-2021 07:30:00 15.6 C 12.37 g/m*3 15.6 C 1.6 km/h
68 29-07-2021 07:35:00 15.7 C 12.31 g/m*3 15.7 C 6.4 km/h
69 29-07-2021 07:40:00 15.8 C 12.25 g/m*3 15.8 C 8.1 km/h
70 29-07-2021 07:45:00 16.1 C 12.47 g/m*3 16.1 C 1.6 km/h
71 29-07-2021 07:50:00 16.2 C 12.41 g/m*3 16.2 C 9.7 km/h
72 29-07-2021 07:55:00 16.4 C 12.42 g/m*3 16.4 C 9.7 km/h
73 29-07-2021 08:00:00 16.6 C 12.43 g/m*3 16.6 C 4.8 km/h
74 29-07-2021 08:05:00 16.7 C 12.51 g/m*3 16.7 C 3.2 km/h
75 29-07-2021 08:10:00 16.8 C 12.3 g/m*3 16.8 C 6.4 km/h
Sensor: Nr:Datum:Temp:Abs-Feuchte:Windchill:Wind:
Aussen-T/F 76 29-07-2021 08:15:00 17 C 12.44 g/m*3 17 C 4.8 km/h
77 29-07-2021 08:20:00 17.1 C 12.37 g/m*3 17.1 C 8.1 km/h
78 29-07-2021 08:25:00 17.3 C 12.37 g/m*3 17.3 C 11.3 km/h
79 29-07-2021 08:30:00 17.4 C 12.45 g/m*3 17.4 C 9.7 km/h
80 29-07-2021 08:35:00 17.6 C 12.45 g/m*3 17.6 C 8.1 km/h
81 29-07-2021 08:40:00 17.7 C 12.37 g/m*3 17.7 C 9.7 km/h
82 29-07-2021 08:45:00 17.7 C 12.22 g/m*3 17.7 C 11.3 km/h
83 29-07-2021 08:50:00 17.8 C 12.29 g/m*3 17.8 C 9.7 km/h
84 29-07-2021 08:55:00 17.8 C 12.45 g/m*3 17.8 C 8.1 km/h
85 29-07-2021 09:00:00 17.9 C 12.37 g/m*3 17.9 C 8.1 km/h
86 29-07-2021 09:05:00 17.9 C 12.37 g/m*3 17.9 C 12.9 km/h
87 29-07-2021 09:10:00 17.9 C 12.52 g/m*3 17.9 C 9.7 km/h
88 29-07-2021 09:15:00 18 C 12.59 g/m*3 18 C 6.4 km/h
89 29-07-2021 09:20:00 18.1 C 12.36 g/m*3 18.1 C 11.3 km/h
90 29-07-2021 09:25:00 18.2 C 12.59 g/m*3 18.2 C 9.7 km/h
91 29-07-2021 09:30:00 18.2 C 12.28 g/m*3 18.2 C 9.7 km/h
92 29-07-2021 09:35:00 18.1 C 12.05 g/m*3 18.1 C 16.1 km/h
93 29-07-2021 09:40:00 18.2 C 12.12 g/m*3 18.2 C 24.1 km/h
94 29-07-2021 09:45:00 18.3 C 12.35 g/m*3 18.3 C 14.5 km/h
95 29-07-2021 09:50:00 18.4 C 12.27 g/m*3 18.4 C 17.7 km/h
96 29-07-2021 09:55:00 18.6 C 12.26 g/m*3 18.6 C 11.3 km/h
97 29-07-2021 10:00:00 18.7 C 12.33 g/m*3 18.7 C 11.3 km/h
98 29-07-2021 10:05:00 18.8 C 12.4 g/m*3 18.8 C 12.9 km/h
99 29-07-2021 10:10:00 18.9 C 12.31 g/m*3 18.9 C 20.9 km/h
100 29-07-2021 10:15:00 18.9 C 12.47 g/m*3 18.9 C 14.5 km/h
Sensor: Nr:Datum:Temp:Abs-Feuchte:Windchill:Wind:
Aussen-T/F 101 29-07-2021 10:20:00 18.9 C 12.15 g/m*3 18.9 C 11.3 km/h
102 29-07-2021 10:25:00 18.8 C 12.24 g/m*3 18.8 C 11.3 km/h
103 29-07-2021 10:30:00 18.8 C 12.08 g/m*3 18.8 C 11.3 km/h
104 29-07-2021 10:35:00 18.8 C 11.92 g/m*3 18.8 C 14.5 km/h
105 29-07-2021 10:40:00 18.8 C 12.24 g/m*3 18.8 C 12.9 km/h
106 29-07-2021 10:45:00 18.7 C 11.85 g/m*3 18.7 C 12.9 km/h
107 29-07-2021 10:50:00 18.7 C 12.01 g/m*3 18.7 C 12.9 km/h
108 29-07-2021 10:55:00 18.7 C 12.01 g/m*3 18.7 C 16.1 km/h
109 29-07-2021 11:00:00 18.8 C 12.24 g/m*3 18.8 C 8.1 km/h
110 29-07-2021 11:05:00 18.7 C 11.85 g/m*3 18.7 C 19.3 km/h
111 29-07-2021 11:10:00 18.7 C 12.01 g/m*3 18.7 C 14.5 km/h
112 29-07-2021 11:15:00 18.7 C 11.69 g/m*3 18.7 C 12.9 km/h
113 29-07-2021 11:20:00 18.7 C 12.01 g/m*3 18.7 C 3.2 km/h
114 29-07-2021 11:25:00 18.7 C 11.85 g/m*3 18.7 C 8.1 km/h
115 29-07-2021 11:30:00 18.9 C 11.99 g/m*3 18.9 C 14.5 km/h
116 29-07-2021 11:35:00 19.2 C 12.2 g/m*3 19.2 C 20.9 km/h
117 29-07-2021 11:40:00 19.2 C 11.87 g/m*3 19.2 C 8.1 km/h
118 29-07-2021 11:45:00 19.2 C 11.54 g/m*3 19.2 C 20.9 km/h
119 29-07-2021 11:50:00 19.2 C 11.54 g/m*3 19.2 C 16.1 km/h
120 29-07-2021 11:55:00 19.2 C 11.71 g/m*3 19.2 C 17.7 km/h
121 29-07-2021 12:00:00 19.2 C 11.54 g/m*3 19.2 C 14.5 km/h
122 29-07-2021 12:05:00 19.3 C 11.28 g/m*3 19.3 C 14.5 km/h
123 29-07-2021 12:10:00 19.3 C 11.28 g/m*3 19.3 C 17.7 km/h
124 29-07-2021 12:15:00 19.4 C 11.51 g/m*3 19.4 C 12.9 km/h
125 29-07-2021 12:20:00 19.6 C 11.65 g/m*3 19.6 C 11.3 km/h
Sensor: Nr:Datum:Temp:Abs-Feuchte:Windchill:Wind:
Aussen-T/F 126 29-07-2021 12:25:00 19.6 C 11.99 g/m*3 19.6 C 8.1 km/h
127 29-07-2021 12:30:00 19.6 C 11.99 g/m*3 19.6 C 6.4 km/h
128 29-07-2021 12:35:00 19.7 C 11.72 g/m*3 19.7 C 8.1 km/h
129 29-07-2021 12:40:00 19.6 C 11.48 g/m*3 19.6 C 19.3 km/h
130 29-07-2021 12:45:00 19.6 C 11.14 g/m*3 19.6 C 20.9 km/h
131 29-07-2021 12:50:00 19.6 C 11.48 g/m*3 19.6 C 16.1 km/h
132 29-07-2021 12:55:00 19.8 C 11.61 g/m*3 19.8 C 11.3 km/h
133 29-07-2021 13:00:00 20 C 11.75 g/m*3 20 C 11.3 km/h
134 29-07-2021 13:05:00 20.2 C 11.54 g/m*3 20.2 C 17.7 km/h
135 29-07-2021 13:10:00 20.4 C 10.79 g/m*3 20.4 C 24.1 km/h
136 29-07-2021 13:15:00 20.4 C 10.97 g/m*3 20.4 C 12.9 km/h
137 29-07-2021 13:20:00 20.3 C 11.08 g/m*3 20.3 C 14.5 km/h
138 29-07-2021 13:25:00 20.1 C 10.95 g/m*3 20.1 C 9.7 km/h
139 29-07-2021 13:30:00 19.9 C 10.65 g/m*3 19.9 C 11.3 km/h
140 29-07-2021 13:35:00 20 C 11.41 g/m*3 20 C 14.5 km/h
141 29-07-2021 13:40:00 20.2 C 11.71 g/m*3 20.2 C 11.3 km/h
142 29-07-2021 13:45:00 20.2 C 11.37 g/m*3 20.2 C 14.5 km/h
143 29-07-2021 13:50:00 20.3 C 11.08 g/m*3 20.3 C 11.3 km/h
144 29-07-2021 13:55:00 20.4 C 10.61 g/m*3 20.4 C 19.3 km/h
145 29-07-2021 14:00:00 20.3 C 10.73 g/m*3 20.3 C 16.1 km/h
146 29-07-2021 14:05:00 20.2 C 11.19 g/m*3 20.2 C 4.8 km/h
147 29-07-2021 14:10:00 20.3 C 10.9 g/m*3 20.3 C 12.9 km/h
148 29-07-2021 14:15:00 20.6 C 10.74 g/m*3 20.6 C 19.3 km/h
149 29-07-2021 14:20:00 20.8 C 10.5 g/m*3 20.8 C 19.3 km/h
150 29-07-2021 14:25:00 20.9 C 11.11 g/m*3 20.9 C 11.3 km/h
Sensor: Nr:Datum:Temp:Abs-Feuchte:Windchill:Wind:
Aussen-T/F 151 29-07-2021 14:30:00 20.9 C 11.66 g/m*3 20.9 C 8.1 km/h
152 29-07-2021 14:35:00 20.8 C 11.23 g/m*3 20.8 C 11.3 km/h
153 29-07-2021 14:40:00 20.7 C 11.16 g/m*3 20.7 C 17.7 km/h
154 29-07-2021 14:45:00 20.7 C 11.52 g/m*3 20.7 C 11.3 km/h

Legende:
   Min
   Max


Maximal/Minimal-Werte vom 23.02.2003 - 23.04.2020

Sensor Min Max Avg
Temp
(Aussen-T/F)
-16.4 °C
20-12-2009  01:30:01
40.4 °C
25-07-2019  16:20:00
11.1 °C

Die Daten stammen von einer Davis Vantage Pro 2 Wetter-Station und werden unter Linux mit der Software wview2wettercgi und aufbereitet. Alle Angaben erfolgen ohne Gewähr für ihre Vollständigkeit oder Richtigkeit.
Kontakt: Rainer Krienke krienke@uni-koblenz.de . Meine Webseiten an der Uni Koblenz oder privat.
Version: $Revision: 0.78 $